createdAt,value
2022-10-22T00:00:39.635Z,15.27
2022-10-22T00:03:42.592Z,13.30
2022-10-22T00:06:45.364Z,15.90
2022-10-22T00:09:48.388Z,15.00
2022-10-22T00:12:51.052Z,16.35
2022-10-22T00:15:53.965Z,19.83
2022-10-22T00:18:56.610Z,17.07
2022-10-22T00:21:59.663Z,17.80
2022-10-22T00:25:02.273Z,18.23
2022-10-22T00:28:05.331Z,17.15
2022-10-22T00:31:07.995Z,15.60
2022-10-22T00:34:10.934Z,15.80
2022-10-22T00:37:13.582Z,25.05
2022-10-22T00:40:17.868Z,26.70
2022-10-22T00:43:20.787Z,17.33
2022-10-22T00:46:23.839Z,18.03
2022-10-22T00:49:26.435Z,21.47
2022-10-22T00:52:29.734Z,16.25
2022-10-22T00:55:33.608Z,18.15
2022-10-22T00:58:40.875Z,19.80
2022-10-22T01:01:46.613Z,24.50
2022-10-22T01:04:49.758Z,21.93
2022-10-22T01:07:53.839Z,22.25
2022-10-22T01:11:13.777Z,24.23
2022-10-22T01:14:22.204Z,24.52
2022-10-22T01:17:40.391Z,25.43
2022-10-22T01:20:46.164Z,20.30
2022-10-22T01:23:59.184Z,22.85
2022-10-22T01:27:24.399Z,28.67
2022-10-22T01:30:27.743Z,20.88
2022-10-22T01:33:31.561Z,23.77
2022-10-22T01:36:35.931Z,16.60
2022-10-22T01:39:40.602Z,16.15
2022-10-22T01:42:43.557Z,16.45
2022-10-22T01:45:50.946Z,16.12
2022-10-22T01:49:02.620Z,16.77
2022-10-22T01:52:40.416Z,15.53
2022-10-22T01:55:51.654Z,16.00
2022-10-22T01:59:33.758Z,16.98
2022-10-22T02:02:56.671Z,16.98
2022-10-22T02:06:05.961Z,49.23
2022-10-22T02:09:10.243Z,33.07
2022-10-22T02:12:14.281Z,37.50
2022-10-22T02:15:20.600Z,25.90
2022-10-22T02:18:28.316Z,22.05
2022-10-22T02:21:32.153Z,23.83
2022-10-22T02:24:35.124Z,27.47
2022-10-22T02:27:49.349Z,25.12
2022-10-22T02:30:55.747Z,24.40
2022-10-22T02:34:03.244Z,27.25
2022-10-22T02:37:08.227Z,31.20
2022-10-22T02:40:11.235Z,24.23
2022-10-22T02:43:14.300Z,31.00
2022-10-22T02:46:17.210Z,30.55
2022-10-22T02:49:20.167Z,32.13
2022-10-22T02:52:22.762Z,34.03
2022-10-22T02:55:25.595Z,28.80
2022-10-22T02:58:28.363Z,27.25
2022-10-22T03:01:31.287Z,30.80
2022-10-22T03:04:34.259Z,42.55
2022-10-22T03:07:37.113Z,29.37
2022-10-22T03:10:39.772Z,27.77
2022-10-22T03:13:42.666Z,28.55
2022-10-22T03:16:46.605Z,26.87
2022-10-22T03:19:49.485Z,24.45
2022-10-22T03:22:52.914Z,29.93
2022-10-22T03:25:55.922Z,25.63
2022-10-22T03:29:00.989Z,27.05
2022-10-22T03:32:04.038Z,29.10
2022-10-22T03:35:06.977Z,26.17
2022-10-22T03:38:10.058Z,24.33
2022-10-22T03:41:12.798Z,22.10
2022-10-22T03:44:17.690Z,21.42
2022-10-22T03:47:20.340Z,22.40
2022-10-22T03:50:23.278Z,25.60
2022-10-22T03:53:25.812Z,19.67
2022-10-22T03:56:28.805Z,24.00
2022-10-22T03:59:39.430Z,22.65
2022-10-22T04:02:42.541Z,19.00
2022-10-22T04:05:45.425Z,17.48
2022-10-22T04:08:57.001Z,19.50
2022-10-22T04:12:00.288Z,19.93
2022-10-22T04:15:02.909Z,19.65
2022-10-22T04:18:07.985Z,20.37
2022-10-22T04:21:12.290Z,19.87
2022-10-22T04:24:15.224Z,22.60
2022-10-22T04:27:17.819Z,21.67
2022-10-22T04:30:20.741Z,24.45
2022-10-22T04:33:23.865Z,27.27
2022-10-22T04:36:29.638Z,27.92
2022-10-22T04:39:32.285Z,30.70
2022-10-22T04:42:35.269Z,31.20
2022-10-22T04:45:37.835Z,27.37
2022-10-22T04:48:42.462Z,24.27
2022-10-22T04:51:45.078Z,29.52
2022-10-22T04:54:50.347Z,25.53
2022-10-22T04:57:52.952Z,24.87
2022-10-22T05:00:55.814Z,28.48
2022-10-22T05:04:02.503Z,27.55
2022-10-22T05:07:05.414Z,24.90
2022-10-22T05:10:08.561Z,25.53
2022-10-22T05:13:13.767Z,85.83
2022-10-22T05:16:16.493Z,49.80
2022-10-22T05:19:31.019Z,87.70
2022-10-22T05:22:35.154Z,84.22
2022-10-22T05:25:39.869Z,72.63
2022-10-22T05:28:43.684Z,76.77
2022-10-22T05:31:47.002Z,57.25
2022-10-22T05:34:50.672Z,56.97
2022-10-22T05:37:53.605Z,51.72
2022-10-22T05:41:00.987Z,36.73
2022-10-22T05:44:05.360Z,28.07
2022-10-22T05:47:10.402Z,27.17
2022-10-22T05:50:13.755Z,33.42
2022-10-22T05:53:19.661Z,30.23
2022-10-22T05:56:23.782Z,29.03
2022-10-22T05:59:26.875Z,31.50
2022-10-22T06:02:30.907Z,31.60
2022-10-22T06:05:42.103Z,31.20
2022-10-22T06:08:48.702Z,31.85
2022-10-22T06:11:53.525Z,38.67
2022-10-22T06:14:56.813Z,38.53
2022-10-22T06:18:01.128Z,36.15
2022-10-22T06:21:13.654Z,39.35
2022-10-22T06:24:17.223Z,32.58
2022-10-22T06:27:20.035Z,38.33
2022-10-22T06:30:23.173Z,37.73
2022-10-22T06:33:26.758Z,35.50
2022-10-22T06:36:29.760Z,37.53
2022-10-22T06:39:32.421Z,40.45
2022-10-22T06:42:36.419Z,35.60
2022-10-22T06:45:39.121Z,38.83
2022-10-22T06:48:43.229Z,37.05
2022-10-22T06:51:49.471Z,33.97
2022-10-22T06:54:52.449Z,37.45
2022-10-22T06:57:58.221Z,40.83
2022-10-22T07:01:22.930Z,32.67
2022-10-22T07:04:25.696Z,34.20
2022-10-22T07:07:28.681Z,32.15
2022-10-22T07:10:31.689Z,31.70
2022-10-22T07:13:35.431Z,33.77
2022-10-22T07:16:38.112Z,31.80
2022-10-22T07:19:41.252Z,33.65
2022-10-22T07:22:44.008Z,32.20
2022-10-22T07:25:48.859Z,45.63
2022-10-22T07:28:52.000Z,34.97
2022-10-22T07:31:55.009Z,30.93
2022-10-22T07:34:59.725Z,29.80
2022-10-22T07:38:09.767Z,25.62
2022-10-22T07:41:14.581Z,31.02
2022-10-22T07:44:18.038Z,31.83
2022-10-22T07:47:22.323Z,20.27
2022-10-22T07:50:28.472Z,16.60
2022-10-22T07:53:33.285Z,18.83
2022-10-22T07:56:40.358Z,17.17
2022-10-22T07:59:45.181Z,12.00
2022-10-22T08:02:49.101Z,9.47
2022-10-22T08:05:52.389Z,9.38
2022-10-22T08:08:55.011Z,11.43
2022-10-22T08:11:58.117Z,16.08
2022-10-22T08:15:01.103Z,12.43
2022-10-22T08:18:05.814Z,8.27
2022-10-22T08:21:08.555Z,14.75
2022-10-22T08:24:12.741Z,9.98
2022-10-22T08:27:15.411Z,13.93
2022-10-22T08:30:18.874Z,13.83
2022-10-22T08:33:21.801Z,14.63
2022-10-22T08:36:24.793Z,13.70
2022-10-22T08:39:28.207Z,12.23
2022-10-22T08:42:55.858Z,12.13
2022-10-22T08:46:19.712Z,17.93
2022-10-22T08:49:36.102Z,14.73
2022-10-22T08:52:45.213Z,13.23
2022-10-22T08:55:52.914Z,17.48
2022-10-22T08:59:23.487Z,18.87
2022-10-22T09:02:48.368Z,14.73
2022-10-22T09:06:15.381Z,19.07
2022-10-22T09:09:19.953Z,18.87
2022-10-22T09:12:25.019Z,13.95
2022-10-22T09:15:28.424Z,19.05
2022-10-22T09:19:05.384Z,15.43
2022-10-22T09:22:29.296Z,19.37
2022-10-22T09:25:36.587Z,13.30
2022-10-22T09:28:39.793Z,18.27
2022-10-22T09:31:42.389Z,14.68
2022-10-22T09:34:49.244Z,16.67
2022-10-22T09:37:56.569Z,13.20
2022-10-22T09:41:04.164Z,14.15
2022-10-22T09:44:07.560Z,13.07
2022-10-22T09:48:00.618Z,11.77
2022-10-22T09:51:07.169Z,13.57
2022-10-22T09:54:37.455Z,12.03
2022-10-22T09:57:43.682Z,14.98
2022-10-22T10:00:53.132Z,11.65
2022-10-22T10:04:09.838Z,14.60
2022-10-22T10:07:19.072Z,11.97
2022-10-22T10:10:28.119Z,12.80
2022-10-22T10:14:10.609Z,12.40
2022-10-22T10:17:28.355Z,13.80
2022-10-22T10:20:50.802Z,15.27
2022-10-22T10:24:17.149Z,15.53
2022-10-22T10:27:38.355Z,15.67
2022-10-22T10:31:15.565Z,14.32
2022-10-22T10:34:36.217Z,15.85
2022-10-22T10:37:52.594Z,14.48
2022-10-22T10:41:05.709Z,14.30
2022-10-22T10:44:34.841Z,12.47
2022-10-22T10:47:55.688Z,13.62
2022-10-22T10:51:20.406Z,19.55
2022-10-22T10:54:35.990Z,10.88
2022-10-22T10:58:01.938Z,14.87
2022-10-22T11:01:20.128Z,14.87
2022-10-22T11:04:42.270Z,20.33
2022-10-22T11:08:26.785Z,17.70
2022-10-22T11:11:32.204Z,17.73
2022-10-22T11:14:42.852Z,15.50
2022-10-22T11:17:48.968Z,16.23
2022-10-22T11:21:04.034Z,16.48
2022-10-22T11:24:31.124Z,15.52
2022-10-22T11:27:45.033Z,16.83
2022-10-22T11:31:03.134Z,13.50
2022-10-22T11:34:33.165Z,15.37
2022-10-22T11:37:39.508Z,16.30
2022-10-22T11:40:50.471Z,16.77
2022-10-22T11:43:56.307Z,18.45
2022-10-22T11:47:19.534Z,16.47
2022-10-22T11:50:25.890Z,17.30
2022-10-22T11:53:33.476Z,15.73
2022-10-22T11:56:39.923Z,16.23
2022-10-22T12:00:00.291Z,16.02
2022-10-22T12:03:32.561Z,33.80
2022-10-22T12:06:55.619Z,18.93
2022-10-22T12:09:58.750Z,18.80
2022-10-22T12:13:12.106Z,20.60
2022-10-22T12:16:14.989Z,15.57
2022-10-22T12:19:27.845Z,15.53
2022-10-22T12:22:33.330Z,14.40
2022-10-22T12:25:36.819Z,17.92
2022-10-22T12:28:41.126Z,18.42
2022-10-22T12:31:45.936Z,18.42
2022-10-22T12:34:51.447Z,18.37
2022-10-22T12:38:00.796Z,22.67
2022-10-22T12:41:05.659Z,16.05
2022-10-22T12:44:13.189Z,16.48
2022-10-22T12:47:18.306Z,17.75
2022-10-22T12:50:33.362Z,17.10
2022-10-22T12:53:39.447Z,15.97
2022-10-22T12:56:42.514Z,17.33
2022-10-22T12:59:49.790Z,18.77
2022-10-22T13:02:54.047Z,16.95
2022-10-22T13:05:57.700Z,15.57
2022-10-22T13:09:00.748Z,19.43
2022-10-22T13:12:05.934Z,16.05
2022-10-22T13:15:21.861Z,16.37
2022-10-22T13:18:45.073Z,23.58
2022-10-22T13:21:49.116Z,17.23
2022-10-22T13:24:52.407Z,17.40
2022-10-22T13:28:01.544Z,15.65
2022-10-22T13:31:19.914Z,16.58
2022-10-22T13:34:25.586Z,15.85
2022-10-22T13:37:30.331Z,21.77
2022-10-22T13:40:33.247Z,17.30
2022-10-22T13:43:35.840Z,16.35
2022-10-22T13:46:42.967Z,16.40
2022-10-22T13:49:47.014Z,21.17
2022-10-22T13:52:53.412Z,21.70
2022-10-22T13:55:56.259Z,30.97
2022-10-22T13:58:59.211Z,24.33
2022-10-22T14:02:06.536Z,29.95
2022-10-22T14:05:11.416Z,24.75
2022-10-22T14:08:17.413Z,25.70
2022-10-22T14:11:20.384Z,19.23
2022-10-22T14:14:22.943Z,19.80
2022-10-22T14:17:26.327Z,22.67
2022-10-22T14:20:31.794Z,19.37
2022-10-22T14:23:36.503Z,19.47
2022-10-22T14:26:39.123Z,20.40
2022-10-22T14:29:43.171Z,19.02
2022-10-22T14:32:46.543Z,19.02
2022-10-22T14:35:50.126Z,18.30
2022-10-22T14:38:52.743Z,16.33
2022-10-22T14:41:55.685Z,16.23
2022-10-22T14:44:58.306Z,17.92
2022-10-22T14:48:02.248Z,21.80
2022-10-22T14:51:05.216Z,14.75
2022-10-22T14:54:08.183Z,16.67
2022-10-22T14:57:11.748Z,18.73
2022-10-22T15:00:20.649Z,23.90
2022-10-22T15:03:23.311Z,17.10
2022-10-22T15:06:26.209Z,17.60
2022-10-22T15:09:29.315Z,20.70
2022-10-22T15:12:32.353Z,26.63
2022-10-22T15:15:39.439Z,26.50
2022-10-22T15:18:43.026Z,21.60
2022-10-22T15:21:45.823Z,22.95
2022-10-22T15:24:49.849Z,24.57
2022-10-22T15:27:54.876Z,20.00
2022-10-22T15:31:02.417Z,19.17
2022-10-22T15:34:05.196Z,18.62
2022-10-22T15:37:12.654Z,20.50
2022-10-22T15:40:15.352Z,23.67
2022-10-22T15:43:19.043Z,22.13
2022-10-22T15:46:22.164Z,20.35
2022-10-22T15:49:27.657Z,25.42
2022-10-22T15:52:31.840Z,29.02
2022-10-22T15:55:34.800Z,32.80
2022-10-22T15:58:37.403Z,40.80
2022-10-22T16:01:41.334Z,44.20
2022-10-22T16:04:44.270Z,36.65
2022-10-22T16:07:47.221Z,26.45
2022-10-22T16:10:50.235Z,23.20
2022-10-22T16:13:57.962Z,24.30
2022-10-22T16:17:01.836Z,22.17
2022-10-22T16:20:05.768Z,28.15
2022-10-22T16:23:09.353Z,30.75
2022-10-22T16:26:13.364Z,36.33
2022-10-22T16:29:17.227Z,31.47
2022-10-22T16:32:19.905Z,28.70
2022-10-22T16:35:22.774Z,33.25
2022-10-22T16:38:26.100Z,29.48
2022-10-22T16:41:35.300Z,42.30
2022-10-22T16:44:37.931Z,50.37
2022-10-22T16:47:43.410Z,68.45
2022-10-22T16:50:46.785Z,80.85
2022-10-22T16:53:52.736Z,50.63
2022-10-22T16:56:55.500Z,54.20
2022-10-22T16:59:58.844Z,42.73
2022-10-22T17:03:01.672Z,39.60
2022-10-22T17:06:05.680Z,36.95
2022-10-22T17:09:08.710Z,34.83
2022-10-22T17:12:13.316Z,37.20
2022-10-22T17:15:16.197Z,40.67
2022-10-22T17:18:19.653Z,38.03
2022-10-22T17:21:23.245Z,42.53
2022-10-22T17:24:26.619Z,36.78
2022-10-22T17:27:29.603Z,43.73
2022-10-22T17:30:33.046Z,44.13
2022-10-22T17:33:44.059Z,47.55
2022-10-22T17:36:50.115Z,46.80
2022-10-22T17:39:55.571Z,45.25
2022-10-22T17:43:01.953Z,44.87
2022-10-22T17:46:15.103Z,46.93
2022-10-22T17:49:23.441Z,46.45
2022-10-22T17:52:28.277Z,47.78
2022-10-22T17:55:36.307Z,45.12
2022-10-22T17:58:41.371Z,42.63
2022-10-22T18:01:49.086Z,46.70
2022-10-22T18:04:53.299Z,48.72
2022-10-22T18:07:57.403Z,54.10
2022-10-22T18:11:01.115Z,48.15
2022-10-22T18:14:05.830Z,62.33
2022-10-22T18:17:09.273Z,54.50
2022-10-22T18:20:12.910Z,50.45
2022-10-22T18:23:16.363Z,48.15
2022-10-22T18:26:25.882Z,49.53
2022-10-22T18:29:30.521Z,50.87
2022-10-22T18:32:34.703Z,48.57
2022-10-22T18:35:39.170Z,43.90
2022-10-22T18:38:45.406Z,46.67
2022-10-22T18:42:00.190Z,50.70
2022-10-22T18:45:04.168Z,49.63
2022-10-22T18:48:07.829Z,43.67
2022-10-22T18:51:11.562Z,45.28
2022-10-22T18:54:23.815Z,41.22
2022-10-22T18:57:27.167Z,39.47
2022-10-22T19:00:31.957Z,49.77
2022-10-22T19:03:35.299Z,47.90
2022-10-22T19:06:42.970Z,43.22
2022-10-22T19:09:48.063Z,45.95
2022-10-22T19:12:51.116Z,44.28
2022-10-22T19:15:53.706Z,47.43
2022-10-22T19:19:04.446Z,42.60
2022-10-22T19:22:07.331Z,54.85
2022-10-22T19:25:12.057Z,50.45
2022-10-22T19:28:15.945Z,44.28
2022-10-22T19:31:22.534Z,46.23
2022-10-22T19:34:25.322Z,44.63
2022-10-22T19:37:28.740Z,42.40
2022-10-22T19:40:31.676Z,49.70
2022-10-22T19:43:35.014Z,47.05
2022-10-22T19:46:37.918Z,42.40
2022-10-22T19:49:43.030Z,42.40
2022-10-22T19:52:45.957Z,45.10
2022-10-22T19:55:48.948Z,48.28
2022-10-22T19:58:51.756Z,41.58
2022-10-22T20:01:55.343Z,41.97
2022-10-22T20:05:00.725Z,45.33
2022-10-22T20:08:03.447Z,47.13
2022-10-22T20:11:13.655Z,52.62
2022-10-22T20:14:16.782Z,44.75
2022-10-22T20:17:20.267Z,40.40
2022-10-22T20:20:26.285Z,44.37
2022-10-22T20:23:29.514Z,38.83
2022-10-22T20:26:33.529Z,37.67
2022-10-22T20:29:36.981Z,40.78
2022-10-22T20:32:40.412Z,38.63
2022-10-22T20:35:45.451Z,38.60
2022-10-22T20:38:49.438Z,35.28
2022-10-22T20:41:52.816Z,41.95
2022-10-22T20:44:55.418Z,67.43
2022-10-22T20:48:02.562Z,57.27
2022-10-22T20:51:05.733Z,58.33
2022-10-22T20:54:09.906Z,52.83
2022-10-22T20:57:14.554Z,51.92
2022-10-22T21:00:17.679Z,50.15
2022-10-22T21:03:23.662Z,45.43
2022-10-22T21:06:26.747Z,48.43
2022-10-22T21:09:29.521Z,46.30
2022-10-22T21:12:32.847Z,44.40
2022-10-22T21:15:35.493Z,50.05
2022-10-22T21:18:38.782Z,48.83
2022-10-22T21:21:41.528Z,45.57
2022-10-22T21:24:44.478Z,43.17
2022-10-22T21:27:47.045Z,43.63
2022-10-22T21:30:49.962Z,41.95
2022-10-22T21:33:54.009Z,43.17
2022-10-22T21:36:56.866Z,38.33
2022-10-22T21:40:00.814Z,38.15
2022-10-22T21:43:03.801Z,39.17
2022-10-22T21:46:08.274Z,38.25
2022-10-22T21:49:12.370Z,37.83
2022-10-22T21:52:14.973Z,36.33
2022-10-22T21:55:17.893Z,36.60
2022-10-22T21:58:20.494Z,34.65
2022-10-22T22:01:23.480Z,34.40
2022-10-22T22:04:27.243Z,38.20
2022-10-22T22:07:29.761Z,36.80
2022-10-22T22:10:32.745Z,32.22
2022-10-22T22:13:35.785Z,36.67
2022-10-22T22:16:39.387Z,37.63
2022-10-22T22:19:42.272Z,34.07
2022-10-22T22:22:48.022Z,35.43
2022-10-22T22:25:50.687Z,32.38
2022-10-22T22:28:53.759Z,35.30
2022-10-22T22:31:56.563Z,36.63
2022-10-22T22:34:59.449Z,33.70
2022-10-22T22:38:02.203Z,33.80
2022-10-22T22:41:05.593Z,32.97
2022-10-22T22:44:08.613Z,31.85
2022-10-22T22:47:11.464Z,36.40
2022-10-22T22:50:14.034Z,32.37
2022-10-22T22:53:16.917Z,30.27
2022-10-22T22:56:24.687Z,33.78
2022-10-22T22:59:29.003Z,32.92
2022-10-22T23:02:32.118Z,31.67
2022-10-22T23:05:37.767Z,32.27
2022-10-22T23:08:40.645Z,31.17
2022-10-22T23:11:45.385Z,33.80
2022-10-22T23:14:51.351Z,33.60
2022-10-22T23:17:54.286Z,30.30
2022-10-22T23:20:56.849Z,30.30
2022-10-22T23:24:02.118Z,33.50
2022-10-22T23:27:05.469Z,29.87
2022-10-22T23:30:09.263Z,30.27
2022-10-22T23:33:12.421Z,32.97
2022-10-22T23:36:15.662Z,34.73
2022-10-22T23:39:20.921Z,33.60
2022-10-22T23:42:23.907Z,35.40
2022-10-22T23:45:26.558Z,33.55
2022-10-22T23:48:29.581Z,29.90
2022-10-22T23:51:32.334Z,32.10
2022-10-22T23:54:35.590Z,31.80
2022-10-22T23:57:38.285Z,30.90
